sensor_id;sensor_type;location;lat;lon;timestamp;temperature;humidity
7240;DHT22;3661;53.288;10.458;2023-07-29T00:01:44;19.90;99.90
7240;DHT22;3661;53.288;10.458;2023-07-29T00:04:16;19.80;99.90
7240;DHT22;3661;53.288;10.458;2023-07-29T00:06:48;19.80;99.90
7240;DHT22;3661;53.288;10.458;2023-07-29T00:09:20;19.80;99.90
7240;DHT22;3661;53.288;10.458;2023-07-29T00:11:53;19.80;99.90
7240;DHT22;3661;53.288;10.458;2023-07-29T00:14:27;19.70;99.90
7240;DHT22;3661;53.288;10.458;2023-07-29T00:16:59;19.70;99.90
7240;DHT22;3661;53.288;10.458;2023-07-29T00:19:31;19.70;99.90
7240;DHT22;3661;53.288;10.458;2023-07-29T00:22:05;19.70;99.90
7240;DHT22;3661;53.288;10.458;2023-07-29T00:24:40;19.70;99.90
7240;DHT22;3661;53.288;10.458;2023-07-29T00:27:13;19.60;99.90
7240;DHT22;3661;53.288;10.458;2023-07-29T00:29:49;19.60;99.90
7240;DHT22;3661;53.288;10.458;2023-07-29T00:32:23;19.60;99.90
7240;DHT22;3661;53.288;10.458;2023-07-29T00:34:55;19.50;99.90
7240;DHT22;3661;53.288;10.458;2023-07-29T00:37:28;19.50;99.90
7240;DHT22;3661;53.288;10.458;2023-07-29T00:40:00;19.50;99.90
7240;DHT22;3661;53.288;10.458;2023-07-29T00:42:33;19.40;99.90
7240;DHT22;3661;53.288;10.458;2023-07-29T00:45:08;19.40;99.90
7240;DHT22;3661;53.288;10.458;2023-07-29T00:47:41;19.40;99.90
7240;DHT22;3661;53.288;10.458;2023-07-29T00:50:15;19.40;99.90
7240;DHT22;3661;53.288;10.458;2023-07-29T00:52:48;19.30;99.90
7240;DHT22;3661;53.288;10.458;2023-07-29T00:55:21;19.30;99.90
7240;DHT22;3661;53.288;10.458;2023-07-29T00:57:53;19.30;99.90
7240;DHT22;3661;53.288;10.458;2023-07-29T01:00:28;19.20;99.90
7240;DHT22;3661;53.288;10.458;2023-07-29T01:03:00;19.20;99.90
7240;DHT22;3661;53.288;10.458;2023-07-29T01:05:39;19.20;99.90
7240;DHT22;3661;53.288;10.458;2023-07-29T01:08:19;19.20;99.90
7240;DHT22;3661;53.288;10.458;2023-07-29T01:11:03;19.10;99.90
7240;DHT22;3661;53.288;10.458;2023-07-29T01:13:48;19.10;99.90
7240;DHT22;3661;53.288;10.458;2023-07-29T01:16:30;19.10;99.90
7240;DHT22;3661;53.288;10.458;2023-07-29T01:19:05;19.00;99.90
7240;DHT22;3661;53.288;10.458;2023-07-29T01:21:38;19.00;99.90
7240;DHT22;3661;53.288;10.458;2023-07-29T01:24:13;19.00;99.90
7240;DHT22;3661;53.288;10.458;2023-07-29T01:26:45;19.00;99.90
7240;DHT22;3661;53.288;10.458;2023-07-29T01:29:19;19.00;99.90
7240;DHT22;3661;53.288;10.458;2023-07-29T01:31:54;18.90;99.90
7240;DHT22;3661;53.288;10.458;2023-07-29T01:34:38;18.90;99.90
7240;DHT22;3661;53.288;10.458;2023-07-29T01:37:18;18.90;99.90
7240;DHT22;3661;53.288;10.458;2023-07-29T01:39:55;18.90;99.90
7240;DHT22;3661;53.288;10.458;2023-07-29T01:42:30;18.90;99.90
7240;DHT22;3661;53.288;10.458;2023-07-29T01:45:04;18.90;99.90
7240;DHT22;3661;53.288;10.458;2023-07-29T01:47:36;18.90;99.90
7240;DHT22;3661;53.288;10.458;2023-07-29T01:50:11;18.90;99.90
7240;DHT22;3661;53.288;10.458;2023-07-29T01:52:45;18.90;99.90
7240;DHT22;3661;53.288;10.458;2023-07-29T01:55:18;18.90;99.90
7240;DHT22;3661;53.288;10.458;2023-07-29T01:57:51;18.90;99.90
7240;DHT22;3661;53.288;10.458;2023-07-29T02:00:23;18.90;99.90
7240;DHT22;3661;53.288;10.458;2023-07-29T02:02:55;18.90;99.90
7240;DHT22;3661;53.288;10.458;2023-07-29T02:05:27;18.90;99.90
7240;DHT22;3661;53.288;10.458;2023-07-29T02:08:00;18.90;99.90
7240;DHT22;3661;53.288;10.458;2023-07-29T02:10:33;18.90;99.90
7240;DHT22;3661;53.288;10.458;2023-07-29T02:13:06;18.90;99.90
7240;DHT22;3661;53.288;10.458;2023-07-29T02:15:38;18.90;99.90
7240;DHT22;3661;53.288;10.458;2023-07-29T02:18:10;18.90;99.90
7240;DHT22;3661;53.288;10.458;2023-07-29T02:20:43;18.90;99.90
7240;DHT22;3661;53.288;10.458;2023-07-29T02:23:19;18.90;99.90
7240;DHT22;3661;53.288;10.458;2023-07-29T02:25:53;18.90;99.90
7240;DHT22;3661;53.288;10.458;2023-07-29T02:28:25;18.90;99.90
7240;DHT22;3661;53.288;10.458;2023-07-29T02:31:14;18.90;99.90
7240;DHT22;3661;53.288;10.458;2023-07-29T02:33:46;18.90;99.90
7240;DHT22;3661;53.288;10.458;2023-07-29T02:36:18;18.80;99.90
7240;DHT22;3661;53.288;10.458;2023-07-29T02:38:51;18.80;99.90
7240;DHT22;3661;53.288;10.458;2023-07-29T02:41:25;18.80;99.90
7240;DHT22;3661;53.288;10.458;2023-07-29T02:43:57;18.80;99.90
7240;DHT22;3661;53.288;10.458;2023-07-29T02:46:29;18.80;99.90
7240;DHT22;3661;53.288;10.458;2023-07-29T02:49:02;18.80;99.90
7240;DHT22;3661;53.288;10.458;2023-07-29T02:51:35;18.80;99.90
7240;DHT22;3661;53.288;10.458;2023-07-29T02:54:07;18.80;99.90
7240;DHT22;3661;53.288;10.458;2023-07-29T02:56:40;18.80;99.90
7240;DHT22;3661;53.288;10.458;2023-07-29T02:59:12;18.80;99.90
7240;DHT22;3661;53.288;10.458;2023-07-29T03:01:45;18.70;99.90
7240;DHT22;3661;53.288;10.458;2023-07-29T03:04:17;18.70;99.90
7240;DHT22;3661;53.288;10.458;2023-07-29T03:06:50;18.70;99.90
7240;DHT22;3661;53.288;10.458;2023-07-29T03:09:22;18.70;99.90
7240;DHT22;3661;53.288;10.458;2023-07-29T03:11:56;18.60;99.90
7240;DHT22;3661;53.288;10.458;2023-07-29T03:14:29;18.60;99.90
7240;DHT22;3661;53.288;10.458;2023-07-29T03:17:02;18.60;99.90
7240;DHT22;3661;53.288;10.458;2023-07-29T03:19:35;18.60;99.90
7240;DHT22;3661;53.288;10.458;2023-07-29T03:22:08;18.60;99.90
7240;DHT22;3661;53.288;10.458;2023-07-29T03:24:40;18.60;99.90
7240;DHT22;3661;53.288;10.458;2023-07-29T03:27:14;18.60;99.90
7240;DHT22;3661;53.288;10.458;2023-07-29T03:29:46;18.50;99.90
7240;DHT22;3661;53.288;10.458;2023-07-29T03:32:19;18.50;99.90
7240;DHT22;3661;53.288;10.458;2023-07-29T03:34:51;18.50;99.90
7240;DHT22;3661;53.288;10.458;2023-07-29T03:37:23;18.50;99.90
7240;DHT22;3661;53.288;10.458;2023-07-29T03:39:55;18.50;99.90
7240;DHT22;3661;53.288;10.458;2023-07-29T03:42:29;18.50;99.90
7240;DHT22;3661;53.288;10.458;2023-07-29T03:45:02;18.50;99.90
7240;DHT22;3661;53.288;10.458;2023-07-29T03:47:35;18.50;99.90
7240;DHT22;3661;53.288;10.458;2023-07-29T03:50:08;18.50;99.90
7240;DHT22;3661;53.288;10.458;2023-07-29T03:52:42;18.50;99.90
7240;DHT22;3661;53.288;10.458;2023-07-29T03:55:14;18.50;99.90
7240;DHT22;3661;53.288;10.458;2023-07-29T03:57:49;18.40;99.90
7240;DHT22;3661;53.288;10.458;2023-07-29T04:00:23;18.40;99.90
7240;DHT22;3661;53.288;10.458;2023-07-29T04:02:55;18.40;99.90
7240;DHT22;3661;53.288;10.458;2023-07-29T04:05:27;18.40;99.90
7240;DHT22;3661;53.288;10.458;2023-07-29T04:08:01;18.40;99.90
7240;DHT22;3661;53.288;10.458;2023-07-29T04:10:33;18.40;99.90
7240;DHT22;3661;53.288;10.458;2023-07-29T04:13:07;18.40;99.90
7240;DHT22;3661;53.288;10.458;2023-07-29T04:15:39;18.40;99.90
7240;DHT22;3661;53.288;10.458;2023-07-29T04:18:11;18.40;99.90
7240;DHT22;3661;53.288;10.458;2023-07-29T04:20:44;18.40;99.90
7240;DHT22;3661;53.288;10.458;2023-07-29T04:23:20;18.40;99.90
7240;DHT22;3661;53.288;10.458;2023-07-29T04:25:53;18.40;99.90
7240;DHT22;3661;53.288;10.458;2023-07-29T04:28:27;18.40;99.90
7240;DHT22;3661;53.288;10.458;2023-07-29T04:31:00;18.40;99.90
7240;DHT22;3661;53.288;10.458;2023-07-29T04:33:32;18.50;99.90
7240;DHT22;3661;53.288;10.458;2023-07-29T04:36:04;18.50;99.90
7240;DHT22;3661;53.288;10.458;2023-07-29T04:38:37;18.50;99.90
7240;DHT22;3661;53.288;10.458;2023-07-29T04:41:09;18.60;99.90
7240;DHT22;3661;53.288;10.458;2023-07-29T04:43:43;18.60;99.90
7240;DHT22;3661;53.288;10.458;2023-07-29T04:46:15;18.60;99.90
7240;DHT22;3661;53.288;10.458;2023-07-29T04:48:48;18.60;99.90
7240;DHT22;3661;53.288;10.458;2023-07-29T04:51:21;18.70;99.90
7240;DHT22;3661;53.288;10.458;2023-07-29T04:53:56;18.70;99.90
7240;DHT22;3661;53.288;10.458;2023-07-29T04:56:28;18.70;99.90
7240;DHT22;3661;53.288;10.458;2023-07-29T04:59:02;18.80;99.90
7240;DHT22;3661;53.288;10.458;2023-07-29T05:01:34;18.80;99.90
7240;DHT22;3661;53.288;10.458;2023-07-29T05:04:06;18.90;99.90
7240;DHT22;3661;53.288;10.458;2023-07-29T05:06:39;18.90;99.90
7240;DHT22;3661;53.288;10.458;2023-07-29T05:09:14;18.90;99.90
7240;DHT22;3661;53.288;10.458;2023-07-29T05:11:47;18.90;99.90
7240;DHT22;3661;53.288;10.458;2023-07-29T05:14:22;19.00;99.90
7240;DHT22;3661;53.288;10.458;2023-07-29T05:16:54;19.00;99.90
7240;DHT22;3661;53.288;10.458;2023-07-29T05:19:27;19.00;99.90
7240;DHT22;3661;53.288;10.458;2023-07-29T05:21:59;19.00;99.90
7240;DHT22;3661;53.288;10.458;2023-07-29T05:24:33;19.10;99.90
7240;DHT22;3661;53.288;10.458;2023-07-29T05:27:05;19.10;99.90
7240;DHT22;3661;53.288;10.458;2023-07-29T05:29:40;19.10;99.90
7240;DHT22;3661;53.288;10.458;2023-07-29T05:32:12;19.10;99.90
7240;DHT22;3661;53.288;10.458;2023-07-29T05:34:44;19.10;99.90
7240;DHT22;3661;53.288;10.458;2023-07-29T05:37:17;19.10;99.90
7240;DHT22;3661;53.288;10.458;2023-07-29T05:39:49;19.20;99.90
7240;DHT22;3661;53.288;10.458;2023-07-29T05:42:21;19.10;99.90
7240;DHT22;3661;53.288;10.458;2023-07-29T05:44:55;19.20;99.90
7240;DHT22;3661;53.288;10.458;2023-07-29T05:47:30;19.20;99.90
7240;DHT22;3661;53.288;10.458;2023-07-29T05:50:05;19.30;99.90
7240;DHT22;3661;53.288;10.458;2023-07-29T05:52:38;19.20;99.90
7240;DHT22;3661;53.288;10.458;2023-07-29T05:55:10;19.30;99.90
7240;DHT22;3661;53.288;10.458;2023-07-29T05:57:50;19.30;99.90
7240;DHT22;3661;53.288;10.458;2023-07-29T06:00:23;19.40;99.90
7240;DHT22;3661;53.288;10.458;2023-07-29T06:02:56;19.40;99.90
7240;DHT22;3661;53.288;10.458;2023-07-29T06:05:28;19.40;99.90
7240;DHT22;3661;53.288;10.458;2023-07-29T06:08:00;19.50;99.90
7240;DHT22;3661;53.288;10.458;2023-07-29T06:10:33;19.50;99.90
7240;DHT22;3661;53.288;10.458;2023-07-29T06:13:05;19.60;99.90
7240;DHT22;3661;53.288;10.458;2023-07-29T06:15:39;19.60;99.90
7240;DHT22;3661;53.288;10.458;2023-07-29T06:18:11;19.60;99.90
7240;DHT22;3661;53.288;10.458;2023-07-29T06:20:45;19.60;99.90
7240;DHT22;3661;53.288;10.458;2023-07-29T06:23:17;19.70;99.90
7240;DHT22;3661;53.288;10.458;2023-07-29T06:25:50;19.70;99.90
7240;DHT22;3661;53.288;10.458;2023-07-29T06:28:22;19.80;99.90
7240;DHT22;3661;53.288;10.458;2023-07-29T06:30:55;19.90;99.90
7240;DHT22;3661;53.288;10.458;2023-07-29T06:33:27;19.90;99.90
7240;DHT22;3661;53.288;10.458;2023-07-29T06:36:00;20.00;99.90
7240;DHT22;3661;53.288;10.458;2023-07-29T06:38:32;20.00;99.90
7240;DHT22;3661;53.288;10.458;2023-07-29T06:41:04;20.10;99.90
7240;DHT22;3661;53.288;10.458;2023-07-29T06:43:37;20.10;99.90
7240;DHT22;3661;53.288;10.458;2023-07-29T06:46:12;20.20;99.90
7240;DHT22;3661;53.288;10.458;2023-07-29T06:48:44;20.30;99.90
7240;DHT22;3661;53.288;10.458;2023-07-29T06:51:16;20.30;99.90
7240;DHT22;3661;53.288;10.458;2023-07-29T06:53:49;20.30;99.90
7240;DHT22;3661;53.288;10.458;2023-07-29T06:56:21;20.40;99.90
7240;DHT22;3661;53.288;10.458;2023-07-29T06:58:54;20.40;99.90
7240;DHT22;3661;53.288;10.458;2023-07-29T07:01:27;20.50;99.90
7240;DHT22;3661;53.288;10.458;2023-07-29T07:03:59;20.60;99.90
7240;DHT22;3661;53.288;10.458;2023-07-29T07:06:32;20.70;99.90
7240;DHT22;3661;53.288;10.458;2023-07-29T07:09:04;20.70;99.90
7240;DHT22;3661;53.288;10.458;2023-07-29T07:11:36;20.80;99.90
7240;DHT22;3661;53.288;10.458;2023-07-29T07:14:08;20.90;99.90
7240;DHT22;3661;53.288;10.458;2023-07-29T07:16:42;21.00;99.90
7240;DHT22;3661;53.288;10.458;2023-07-29T07:19:14;21.00;99.90
7240;DHT22;3661;53.288;10.458;2023-07-29T07:21:46;21.20;99.90
7240;DHT22;3661;53.288;10.458;2023-07-29T07:24:19;21.30;99.90
7240;DHT22;3661;53.288;10.458;2023-07-29T07:26:51;21.40;99.90
7240;DHT22;3661;53.288;10.458;2023-07-29T07:29:23;21.50;99.90
7240;DHT22;3661;53.288;10.458;2023-07-29T07:31:57;21.60;99.90
7240;DHT22;3661;53.288;10.458;2023-07-29T07:34:29;21.70;99.90
7240;DHT22;3661;53.288;10.458;2023-07-29T07:37:01;21.80;99.90
7240;DHT22;3661;53.288;10.458;2023-07-29T07:39:34;21.90;99.90
7240;DHT22;3661;53.288;10.458;2023-07-29T07:42:06;22.00;99.90
7240;DHT22;3661;53.288;10.458;2023-07-29T07:44:38;22.10;99.90
7240;DHT22;3661;53.288;10.458;2023-07-29T07:47:12;22.20;99.90
7240;DHT22;3661;53.288;10.458;2023-07-29T07:49:44;22.30;99.90
7240;DHT22;3661;53.288;10.458;2023-07-29T07:52:16;22.30;99.90
7240;DHT22;3661;53.288;10.458;2023-07-29T07:54:52;22.30;99.90
7240;DHT22;3661;53.288;10.458;2023-07-29T07:57:24;22.40;99.90
7240;DHT22;3661;53.288;10.458;2023-07-29T07:59:56;22.50;99.90
7240;DHT22;3661;53.288;10.458;2023-07-29T08:02:30;22.50;99.90
7240;DHT22;3661;53.288;10.458;2023-07-29T08:05:02;22.60;99.90
7240;DHT22;3661;53.288;10.458;2023-07-29T08:07:34;22.60;99.90
7240;DHT22;3661;53.288;10.458;2023-07-29T08:10:10;22.70;99.90
7240;DHT22;3661;53.288;10.458;2023-07-29T08:12:42;22.70;99.90
7240;DHT22;3661;53.288;10.458;2023-07-29T08:15:14;22.70;99.90
7240;DHT22;3661;53.288;10.458;2023-07-29T08:17:48;22.80;99.90
7240;DHT22;3661;53.288;10.458;2023-07-29T08:20:20;22.90;99.90
7240;DHT22;3661;53.288;10.458;2023-07-29T08:22:52;22.90;99.90
7240;DHT22;3661;53.288;10.458;2023-07-29T08:25:24;23.00;99.90
7240;DHT22;3661;53.288;10.458;2023-07-29T08:27:56;23.00;99.90
7240;DHT22;3661;53.288;10.458;2023-07-29T08:30:29;23.10;99.90
7240;DHT22;3661;53.288;10.458;2023-07-29T08:33:02;23.10;99.90
7240;DHT22;3661;53.288;10.458;2023-07-29T08:35:36;23.20;99.90
7240;DHT22;3661;53.288;10.458;2023-07-29T08:38:08;23.20;99.90
7240;DHT22;3661;53.288;10.458;2023-07-29T08:40:43;23.20;99.90
7240;DHT22;3661;53.288;10.458;2023-07-29T08:43:19;23.20;99.90
7240;DHT22;3661;53.288;10.458;2023-07-29T08:45:52;23.20;99.90
7240;DHT22;3661;53.288;10.458;2023-07-29T08:48:32;23.20;99.90
7240;DHT22;3661;53.288;10.458;2023-07-29T08:51:05;23.20;99.90
7240;DHT22;3661;53.288;10.458;2023-07-29T08:53:40;23.20;99.90
7240;DHT22;3661;53.288;10.458;2023-07-29T08:56:14;23.20;99.90
7240;DHT22;3661;53.288;10.458;2023-07-29T08:58:47;23.10;99.90
7240;DHT22;3661;53.288;10.458;2023-07-29T09:01:20;23.10;99.90
7240;DHT22;3661;53.288;10.458;2023-07-29T09:03:56;23.10;99.90
7240;DHT22;3661;53.288;10.458;2023-07-29T09:06:33;23.10;99.90
7240;DHT22;3661;53.288;10.458;2023-07-29T09:09:08;23.00;99.90
7240;DHT22;3661;53.288;10.458;2023-07-29T09:11:41;23.00;99.90
7240;DHT22;3661;53.288;10.458;2023-07-29T09:14:21;23.00;99.90
7240;DHT22;3661;53.288;10.458;2023-07-29T09:16:54;23.00;99.90
7240;DHT22;3661;53.288;10.458;2023-07-29T09:19:49;23.00;99.90
7240;DHT22;3661;53.288;10.458;2023-07-29T10:19:42;21.60;99.90
7240;DHT22;3661;53.288;10.458;2023-07-29T10:22:17;21.60;99.90
7240;DHT22;3661;53.288;10.458;2023-07-29T10:24:54;21.60;99.90
7240;DHT22;3661;53.288;10.458;2023-07-29T10:27:36;21.60;99.90
7240;DHT22;3661;53.288;10.458;2023-07-29T10:30:11;21.70;99.90
7240;DHT22;3661;53.288;10.458;2023-07-29T10:32:45;21.70;99.90
7240;DHT22;3661;53.288;10.458;2023-07-29T10:35:19;21.70;99.90
7240;DHT22;3661;53.288;10.458;2023-07-29T10:37:51;21.70;99.90
7240;DHT22;3661;53.288;10.458;2023-07-29T10:40:24;21.80;99.90
7240;DHT22;3661;53.288;10.458;2023-07-29T10:43:06;21.80;99.90
7240;DHT22;3661;53.288;10.458;2023-07-29T10:45:41;21.90;99.90
7240;DHT22;3661;53.288;10.458;2023-07-29T10:48:40;22.00;99.90
7240;DHT22;3661;53.288;10.458;2023-07-29T10:51:29;22.00;99.90
7240;DHT22;3661;53.288;10.458;2023-07-29T10:54:09;22.10;99.90
7240;DHT22;3661;53.288;10.458;2023-07-29T10:56:43;22.20;99.90
7240;DHT22;3661;53.288;10.458;2023-07-29T10:59:39;22.30;99.90
7240;DHT22;3661;53.288;10.458;2023-07-29T11:02:17;22.50;99.90
7240;DHT22;3661;53.288;10.458;2023-07-29T11:04:50;22.60;99.90
7240;DHT22;3661;53.288;10.458;2023-07-29T11:07:24;22.70;99.90
7240;DHT22;3661;53.288;10.458;2023-07-29T11:10:02;22.80;99.90
7240;DHT22;3661;53.288;10.458;2023-07-29T11:12:42;22.90;99.90
7240;DHT22;3661;53.288;10.458;2023-07-29T11:15:18;23.00;99.90
7240;DHT22;3661;53.288;10.458;2023-07-29T11:17:52;23.10;99.90
7240;DHT22;3661;53.288;10.458;2023-07-29T11:20:27;23.10;99.90
7240;DHT22;3661;53.288;10.458;2023-07-29T11:23:02;23.20;99.90
7240;DHT22;3661;53.288;10.458;2023-07-29T11:25:35;23.40;99.90
7240;DHT22;3661;53.288;10.458;2023-07-29T11:28:07;23.50;99.90
7240;DHT22;3661;53.288;10.458;2023-07-29T11:30:39;23.60;99.90
7240;DHT22;3661;53.288;10.458;2023-07-29T11:33:12;23.70;99.90
7240;DHT22;3661;53.288;10.458;2023-07-29T11:35:44;23.70;99.90
7240;DHT22;3661;53.288;10.458;2023-07-29T11:38:19;23.80;99.90
7240;DHT22;3661;53.288;10.458;2023-07-29T11:40:55;23.90;99.90
7240;DHT22;3661;53.288;10.458;2023-07-29T11:43:27;23.90;99.90
7240;DHT22;3661;53.288;10.458;2023-07-29T11:46:01;23.90;99.90
7240;DHT22;3661;53.288;10.458;2023-07-29T11:48:34;23.90;99.90
7240;DHT22;3661;53.288;10.458;2023-07-29T11:51:07;24.00;99.90
7240;DHT22;3661;53.288;10.458;2023-07-29T11:53:43;24.00;99.90
7240;DHT22;3661;53.288;10.458;2023-07-29T11:56:17;24.10;99.90
7240;DHT22;3661;53.288;10.458;2023-07-29T11:58:49;24.20;99.90
7240;DHT22;3661;53.288;10.458;2023-07-29T12:01:22;24.30;99.90
7240;DHT22;3661;53.288;10.458;2023-07-29T12:03:55;24.40;99.90
7240;DHT22;3661;53.288;10.458;2023-07-29T12:06:27;24.40;99.90
7240;DHT22;3661;53.288;10.458;2023-07-29T12:09:03;24.40;99.90
7240;DHT22;3661;53.288;10.458;2023-07-29T12:11:36;24.50;99.90
7240;DHT22;3661;53.288;10.458;2023-07-29T12:14:08;24.60;99.90
7240;DHT22;3661;53.288;10.458;2023-07-29T12:16:41;24.60;99.90
7240;DHT22;3661;53.288;10.458;2023-07-29T12:19:13;24.70;99.90
7240;DHT22;3661;53.288;10.458;2023-07-29T12:21:45;24.70;99.90
7240;DHT22;3661;53.288;10.458;2023-07-29T12:24:19;24.80;99.90
7240;DHT22;3661;53.288;10.458;2023-07-29T12:26:52;24.90;99.90
7240;DHT22;3661;53.288;10.458;2023-07-29T12:29:24;25.00;99.90
7240;DHT22;3661;53.288;10.458;2023-07-29T12:31:57;25.20;99.90
7240;DHT22;3661;53.288;10.458;2023-07-29T12:34:31;25.40;99.90
7240;DHT22;3661;53.288;10.458;2023-07-29T12:37:04;25.60;99.90
7240;DHT22;3661;53.288;10.458;2023-07-29T12:39:41;25.80;99.90
7240;DHT22;3661;53.288;10.458;2023-07-29T12:42:13;26.00;99.90
7240;DHT22;3661;53.288;10.458;2023-07-29T12:44:46;26.10;99.90
7240;DHT22;3661;53.288;10.458;2023-07-29T12:47:19;26.20;99.90
7240;DHT22;3661;53.288;10.458;2023-07-29T12:49:51;26.30;99.90
7240;DHT22;3661;53.288;10.458;2023-07-29T12:52:23;26.30;99.90
7240;DHT22;3661;53.288;10.458;2023-07-29T12:54:57;26.30;99.90
7240;DHT22;3661;53.288;10.458;2023-07-29T12:57:29;26.30;99.90
7240;DHT22;3661;53.288;10.458;2023-07-29T13:00:02;26.20;99.90
7240;DHT22;3661;53.288;10.458;2023-07-29T13:02:34;26.20;99.90
7240;DHT22;3661;53.288;10.458;2023-07-29T13:05:10;26.10;99.90
7240;DHT22;3661;53.288;10.458;2023-07-29T13:07:43;26.10;99.90
7240;DHT22;3661;53.288;10.458;2023-07-29T13:10:17;26.20;99.90
7240;DHT22;3661;53.288;10.458;2023-07-29T13:12:49;26.30;99.90
7240;DHT22;3661;53.288;10.458;2023-07-29T13:15:21;26.40;99.90
7240;DHT22;3661;53.288;10.458;2023-07-29T13:17:54;26.60;99.90
7240;DHT22;3661;53.288;10.458;2023-07-29T13:20:27;26.60;99.90
7240;DHT22;3661;53.288;10.458;2023-07-29T13:23:00;26.80;99.90
7240;DHT22;3661;53.288;10.458;2023-07-29T13:25:34;26.80;99.90
7240;DHT22;3661;53.288;10.458;2023-07-29T13:28:06;26.90;99.90
7240;DHT22;3661;53.288;10.458;2023-07-29T13:30:39;26.90;99.90
7240;DHT22;3661;53.288;10.458;2023-07-29T13:33:11;27.00;99.90
7240;DHT22;3661;53.288;10.458;2023-07-29T13:35:43;27.00;99.90
7240;DHT22;3661;53.288;10.458;2023-07-29T13:38:15;27.00;99.90
7240;DHT22;3661;53.288;10.458;2023-07-29T13:40:51;27.10;99.90
7240;DHT22;3661;53.288;10.458;2023-07-29T13:43:23;27.10;99.90
7240;DHT22;3661;53.288;10.458;2023-07-29T13:45:56;27.10;99.90
7240;DHT22;3661;53.288;10.458;2023-07-29T13:48:28;27.10;99.90
7240;DHT22;3661;53.288;10.458;2023-07-29T13:51:00;27.00;99.90
7240;DHT22;3661;53.288;10.458;2023-07-29T13:53:32;27.00;99.90
7240;DHT22;3661;53.288;10.458;2023-07-29T13:56:06;27.00;99.90
7240;DHT22;3661;53.288;10.458;2023-07-29T13:58:38;26.90;99.90
7240;DHT22;3661;53.288;10.458;2023-07-29T14:01:10;26.90;99.90
7240;DHT22;3661;53.288;10.458;2023-07-29T14:03:42;27.00;99.90
7240;DHT22;3661;53.288;10.458;2023-07-29T14:06:14;27.10;99.90
7240;DHT22;3661;53.288;10.458;2023-07-29T14:08:46;27.20;99.90
7240;DHT22;3661;53.288;10.458;2023-07-29T14:11:20;27.30;99.90
7240;DHT22;3661;53.288;10.458;2023-07-29T14:13:52;27.40;99.90
7240;DHT22;3661;53.288;10.458;2023-07-29T14:16:24;27.50;99.90
7240;DHT22;3661;53.288;10.458;2023-07-29T14:18:57;27.60;99.90
7240;DHT22;3661;53.288;10.458;2023-07-29T14:21:29;27.70;99.90
7240;DHT22;3661;53.288;10.458;2023-07-29T14:24:01;27.80;99.90
7240;DHT22;3661;53.288;10.458;2023-07-29T14:26:35;27.90;99.90
7240;DHT22;3661;53.288;10.458;2023-07-29T14:29:07;28.00;99.90
7240;DHT22;3661;53.288;10.458;2023-07-29T14:31:40;28.00;99.90
7240;DHT22;3661;53.288;10.458;2023-07-29T14:34:12;27.90;99.90
7240;DHT22;3661;53.288;10.458;2023-07-29T14:36:45;27.90;99.90
7240;DHT22;3661;53.288;10.458;2023-07-29T14:39:17;27.80;99.90
7240;DHT22;3661;53.288;10.458;2023-07-29T14:41:51;27.80;99.90
7240;DHT22;3661;53.288;10.458;2023-07-29T14:44:23;27.80;99.90
7240;DHT22;3661;53.288;10.458;2023-07-29T14:46:56;27.80;99.90
7240;DHT22;3661;53.288;10.458;2023-07-29T14:49:28;27.70;99.90
7240;DHT22;3661;53.288;10.458;2023-07-29T14:52:00;27.70;99.90
7240;DHT22;3661;53.288;10.458;2023-07-29T14:54:32;27.60;99.90
7240;DHT22;3661;53.288;10.458;2023-07-29T14:57:07;27.50;99.90
7240;DHT22;3661;53.288;10.458;2023-07-29T14:59:39;27.50;99.90
7240;DHT22;3661;53.288;10.458;2023-07-29T15:02:11;27.50;99.90
7240;DHT22;3661;53.288;10.458;2023-07-29T15:04:43;27.60;99.90
7240;DHT22;3661;53.288;10.458;2023-07-29T15:07:15;27.60;99.90
7240;DHT22;3661;53.288;10.458;2023-07-29T15:09:49;27.60;99.90
7240;DHT22;3661;53.288;10.458;2023-07-29T15:12:23;27.60;99.90
7240;DHT22;3661;53.288;10.458;2023-07-29T15:14:56;27.60;99.90
7240;DHT22;3661;53.288;10.458;2023-07-29T15:17:28;27.70;99.90
7240;DHT22;3661;53.288;10.458;2023-07-29T15:20:01;27.80;99.90
7240;DHT22;3661;53.288;10.458;2023-07-29T15:22:33;27.80;99.90
7240;DHT22;3661;53.288;10.458;2023-07-29T15:25:08;27.90;99.90
7240;DHT22;3661;53.288;10.458;2023-07-29T15:27:41;28.00;99.90
7240;DHT22;3661;53.288;10.458;2023-07-29T15:30:13;28.10;99.90
7240;DHT22;3661;53.288;10.458;2023-07-29T15:32:45;28.20;99.90
7240;DHT22;3661;53.288;10.458;2023-07-29T15:35:18;28.30;99.90
7240;DHT22;3661;53.288;10.458;2023-07-29T15:37:50;28.40;99.90
7240;DHT22;3661;53.288;10.458;2023-07-29T15:40:22;28.50;99.90
7240;DHT22;3661;53.288;10.458;2023-07-29T15:42:55;28.60;99.90
7240;DHT22;3661;53.288;10.458;2023-07-29T15:45:27;28.60;99.90
7240;DHT22;3661;53.288;10.458;2023-07-29T15:48:00;28.70;99.90
7240;DHT22;3661;53.288;10.458;2023-07-29T15:50:32;28.70;99.90
7240;DHT22;3661;53.288;10.458;2023-07-29T15:53:03;28.80;99.90
7240;DHT22;3661;53.288;10.458;2023-07-29T15:55:36;28.90;99.90
7240;DHT22;3661;53.288;10.458;2023-07-29T15:58:09;29.00;99.90
7240;DHT22;3661;53.288;10.458;2023-07-29T16:00:42;29.00;99.90
7240;DHT22;3661;53.288;10.458;2023-07-29T16:03:14;29.10;99.90
7240;DHT22;3661;53.288;10.458;2023-07-29T16:05:46;29.20;99.90
7240;DHT22;3661;53.288;10.458;2023-07-29T16:08:18;29.30;99.90
7240;DHT22;3661;53.288;10.458;2023-07-29T16:10:50;29.40;99.90
7240;DHT22;3661;53.288;10.458;2023-07-29T16:13:24;29.40;99.90
7240;DHT22;3661;53.288;10.458;2023-07-29T16:15:56;29.40;99.90
7240;DHT22;3661;53.288;10.458;2023-07-29T16:18:29;29.40;99.90
7240;DHT22;3661;53.288;10.458;2023-07-29T16:21:01;29.30;99.90
7240;DHT22;3661;53.288;10.458;2023-07-29T16:23:34;29.30;99.90
7240;DHT22;3661;53.288;10.458;2023-07-29T16:26:06;29.10;99.90
7240;DHT22;3661;53.288;10.458;2023-07-29T16:28:40;29.10;99.90
7240;DHT22;3661;53.288;10.458;2023-07-29T16:31:14;29.00;99.90
7240;DHT22;3661;53.288;10.458;2023-07-29T16:33:46;28.90;99.90
7240;DHT22;3661;53.288;10.458;2023-07-29T16:36:18;28.70;99.90
7240;DHT22;3661;53.288;10.458;2023-07-29T16:38:51;28.50;99.90
7240;DHT22;3661;53.288;10.458;2023-07-29T16:41:23;28.30;99.90
7240;DHT22;3661;53.288;10.458;2023-07-29T16:43:57;28.20;99.90
7240;DHT22;3661;53.288;10.458;2023-07-29T16:46:29;28.00;99.90
7240;DHT22;3661;53.288;10.458;2023-07-29T16:49:01;27.70;99.90
7240;DHT22;3661;53.288;10.458;2023-07-29T16:51:34;27.50;99.90
7240;DHT22;3661;53.288;10.458;2023-07-29T16:54:06;27.30;99.90
7240;DHT22;3661;53.288;10.458;2023-07-29T16:56:38;27.10;99.90
7240;DHT22;3661;53.288;10.458;2023-07-29T16:59:12;26.90;99.90
7240;DHT22;3661;53.288;10.458;2023-07-29T17:01:44;26.80;99.90
7240;DHT22;3661;53.288;10.458;2023-07-29T17:04:16;26.60;99.90
7240;DHT22;3661;53.288;10.458;2023-07-29T17:06:48;26.50;99.90
7240;DHT22;3661;53.288;10.458;2023-07-29T17:09:20;26.30;99.90
7240;DHT22;3661;53.288;10.458;2023-07-29T17:11:53;26.10;99.90
7240;DHT22;3661;53.288;10.458;2023-07-29T17:14:31;26.00;99.90
7240;DHT22;3661;53.288;10.458;2023-07-29T17:17:07;25.80;99.90
7240;DHT22;3661;53.288;10.458;2023-07-29T17:19:39;25.60;99.90
7240;DHT22;3661;53.288;10.458;2023-07-29T17:22:15;25.40;99.90